sensor_id;sensor_type;location;lat;lon;timestamp;P1;P2;P0
57884;PMS5003;43703;51.060;-0.086;2022-10-31T00:00:10;7;4;
57884;PMS5003;43703;51.060;-0.086;2022-10-31T00:02:34;3;3;
57884;PMS5003;43703;51.060;-0.086;2022-10-31T00:05:00;4;2;
57884;PMS5003;43703;51.060;-0.086;2022-10-31T00:07:26;3;2;
57884;PMS5003;43703;51.060;-0.086;2022-10-31T00:09:52;5;5;
57884;PMS5003;43703;51.060;-0.086;2022-10-31T00:12:18;3;3;
57884;PMS5003;43703;51.060;-0.086;2022-10-31T00:14:43;7;4;
57884;PMS5003;43703;51.060;-0.086;2022-10-31T00:17:09;5;5;
57884;PMS5003;43703;51.060;-0.086;2022-10-31T00:19:35;3;3;
57884;PMS5003;43703;51.060;-0.086;2022-10-31T00:22:01;3;3;
57884;PMS5003;43703;51.060;-0.086;2022-10-31T00:24:27;3;2;
57884;PMS5003;43703;51.060;-0.086;2022-10-31T00:26:53;7;6;
57884;PMS5003;43703;51.060;-0.086;2022-10-31T00:29:19;5;3;
57884;PMS5003;43703;51.060;-0.086;2022-10-31T00:31:45;4;2;
57884;PMS5003;43703;51.060;-0.086;2022-10-31T00:34:10;3;3;
57884;PMS5003;43703;51.060;-0.086;2022-10-31T00:36:36;5;4;
57884;PMS5003;43703;51.060;-0.086;2022-10-31T00:39:01;4;4;
57884;PMS5003;43703;51.060;-0.086;2022-10-31T00:41:26;3;3;
57884;PMS5003;43703;51.060;-0.086;2022-10-31T00:43:52;5;2;
57884;PMS5003;43703;51.060;-0.086;2022-10-31T00:46:18;7;4;
57884;PMS5003;43703;51.060;-0.086;2022-10-31T00:48:44;4;3;
57884;PMS5003;43703;51.060;-0.086;2022-10-31T00:51:10;2;2;
57884;PMS5003;43703;51.060;-0.086;2022-10-31T00:53:36;5;5;
57884;PMS5003;43703;51.060;-0.086;2022-10-31T00:56:02;5;5;
57884;PMS5003;43703;51.060;-0.086;2022-10-31T00:58:28;6;4;
57884;PMS5003;43703;51.060;-0.086;2022-10-31T01:00:53;7;5;
57884;PMS5003;43703;51.060;-0.086;2022-10-31T01:03:19;4;4;
57884;PMS5003;43703;51.060;-0.086;2022-10-31T01:05:45;5;3;
57884;PMS5003;43703;51.060;-0.086;2022-10-31T01:08:11;7;5;
57884;PMS5003;43703;51.060;-0.086;2022-10-31T01:10:37;5;5;
57884;PMS5003;43703;51.060;-0.086;2022-10-31T01:13:02;3;3;
57884;PMS5003;43703;51.060;-0.086;2022-10-31T01:15:28;7;6;
57884;PMS5003;43703;51.060;-0.086;2022-10-31T01:17:54;3;3;
57884;PMS5003;43703;51.060;-0.086;2022-10-31T01:20:20;8;6;
57884;PMS5003;43703;51.060;-0.086;2022-10-31T01:22:46;4;2;
57884;PMS5003;43703;51.060;-0.086;2022-10-31T01:25:12;7;5;
57884;PMS5003;43703;51.060;-0.086;2022-10-31T01:27:37;7;5;
57884;PMS5003;43703;51.060;-0.086;2022-10-31T01:30:04;4;4;
57884;PMS5003;43703;51.060;-0.086;2022-10-31T01:32:29;5;4;
57884;PMS5003;43703;51.060;-0.086;2022-10-31T01:34:55;3;3;
57884;PMS5003;43703;51.060;-0.086;2022-10-31T01:37:21;6;5;
57884;PMS5003;43703;51.060;-0.086;2022-10-31T01:39:47;4;4;
57884;PMS5003;43703;51.060;-0.086;2022-10-31T01:42:15;3;2;
57884;PMS5003;43703;51.060;-0.086;2022-10-31T01:47:05;4;3;
57884;PMS5003;43703;51.060;-0.086;2022-10-31T01:49:30;3;2;
57884;PMS5003;43703;51.060;-0.086;2022-10-31T01:51:56;6;5;
57884;PMS5003;43703;51.060;-0.086;2022-10-31T01:54:21;1;1;
57884;PMS5003;43703;51.060;-0.086;2022-10-31T01:56:48;4;3;
57884;PMS5003;43703;51.060;-0.086;2022-10-31T01:59:13;3;3;
57884;PMS5003;43703;51.060;-0.086;2022-10-31T02:01:38;6;5;
57884;PMS5003;43703;51.060;-0.086;2022-10-31T02:04:06;3;3;
57884;PMS5003;43703;51.060;-0.086;2022-10-31T02:06:32;2;2;
57884;PMS5003;43703;51.060;-0.086;2022-10-31T02:08:56;7;5;
57884;PMS5003;43703;51.060;-0.086;2022-10-31T02:11:22;4;2;
57884;PMS5003;43703;51.060;-0.086;2022-10-31T02:13:48;4;4;
57884;PMS5003;43703;51.060;-0.086;2022-10-31T02:16:14;4;4;
57884;PMS5003;43703;51.060;-0.086;2022-10-31T02:18:40;4;4;
57884;PMS5003;43703;51.060;-0.086;2022-10-31T02:21:07;5;4;
57884;PMS5003;43703;51.060;-0.086;2022-10-31T02:23:36;5;3;
57884;PMS5003;43703;51.060;-0.086;2022-10-31T02:26:02;4;4;
57884;PMS5003;43703;51.060;-0.086;2022-10-31T02:28:26;6;5;
57884;PMS5003;43703;51.060;-0.086;2022-10-31T02:30:56;3;3;
57884;PMS5003;43703;51.060;-0.086;2022-10-31T02:33:16;3;3;
57884;PMS5003;43703;51.060;-0.086;2022-10-31T02:35:41;4;4;
57884;PMS5003;43703;51.060;-0.086;2022-10-31T02:38:20;5;3;
57884;PMS5003;43703;51.060;-0.086;2022-10-31T02:40:33;3;3;
57884;PMS5003;43703;51.060;-0.086;2022-10-31T02:42:59;6;4;
57884;PMS5003;43703;51.060;-0.086;2022-10-31T02:45:25;4;3;
57884;PMS5003;43703;51.060;-0.086;2022-10-31T02:47:49;7;4;
57884;PMS5003;43703;51.060;-0.086;2022-10-31T02:50:16;9;6;
57884;PMS5003;43703;51.060;-0.086;2022-10-31T02:52:40;3;3;
57884;PMS5003;43703;51.060;-0.086;2022-10-31T02:55:09;3;3;
57884;PMS5003;43703;51.060;-0.086;2022-10-31T02:57:31;4;4;
57884;PMS5003;43703;51.060;-0.086;2022-10-31T02:59:58;5;3;
57884;PMS5003;43703;51.060;-0.086;2022-10-31T03:04:54;4;4;
57884;PMS5003;43703;51.060;-0.086;2022-10-31T03:07:17;4;4;
57884;PMS5003;43703;51.060;-0.086;2022-10-31T03:09:41;3;3;
57884;PMS5003;43703;51.060;-0.086;2022-10-31T03:12:07;2;2;
57884;PMS5003;43703;51.060;-0.086;2022-10-31T03:14:32;4;4;
57884;PMS5003;43703;51.060;-0.086;2022-10-31T03:16:56;6;2;
57884;PMS5003;43703;51.060;-0.086;2022-10-31T03:19:23;8;4;
57884;PMS5003;43703;51.060;-0.086;2022-10-31T03:21:49;3;3;
57884;PMS5003;43703;51.060;-0.086;2022-10-31T03:24:14;5;2;
57884;PMS5003;43703;51.060;-0.086;2022-10-31T03:26:41;7;4;
57884;PMS5003;43703;51.060;-0.086;2022-10-31T03:29:06;5;4;
57884;PMS5003;43703;51.060;-0.086;2022-10-31T03:31:32;5;5;
57884;PMS5003;43703;51.060;-0.086;2022-10-31T03:33:58;5;5;
57884;PMS5003;43703;51.060;-0.086;2022-10-31T03:36:23;3;2;
57884;PMS5003;43703;51.060;-0.086;2022-10-31T03:38:49;2;2;
57884;PMS5003;43703;51.060;-0.086;2022-10-31T03:41:16;4;3;
57884;PMS5003;43703;51.060;-0.086;2022-10-31T03:43:42;5;3;
57884;PMS5003;43703;51.060;-0.086;2022-10-31T03:46:06;2;2;
57884;PMS5003;43703;51.060;-0.086;2022-10-31T03:48:32;4;4;
57884;PMS5003;43703;51.060;-0.086;2022-10-31T03:50:59;4;2;
57884;PMS5003;43703;51.060;-0.086;2022-10-31T03:53:24;2;2;
57884;PMS5003;43703;51.060;-0.086;2022-10-31T03:55:50;2;2;
57884;PMS5003;43703;51.060;-0.086;2022-10-31T03:58:17;3;3;
57884;PMS5003;43703;51.060;-0.086;2022-10-31T04:00:42;5;3;
57884;PMS5003;43703;51.060;-0.086;2022-10-31T04:03:07;4;3;
57884;PMS5003;43703;51.060;-0.086;2022-10-31T04:05:33;3;3;
57884;PMS5003;43703;51.060;-0.086;2022-10-31T04:07:59;4;3;
57884;PMS5003;43703;51.060;-0.086;2022-10-31T04:10:25;6;3;
57884;PMS5003;43703;51.060;-0.086;2022-10-31T04:12:51;4;4;
57884;PMS5003;43703;51.060;-0.086;2022-10-31T04:15:16;2;2;
57884;PMS5003;43703;51.060;-0.086;2022-10-31T04:17:41;2;2;
57884;PMS5003;43703;51.060;-0.086;2022-10-31T04:20:08;4;3;
57884;PMS5003;43703;51.060;-0.086;2022-10-31T04:22:33;2;2;
57884;PMS5003;43703;51.060;-0.086;2022-10-31T04:24:58;7;4;
57884;PMS5003;43703;51.060;-0.086;2022-10-31T04:27:24;4;3;
57884;PMS5003;43703;51.060;-0.086;2022-10-31T04:29:50;2;2;
57884;PMS5003;43703;51.060;-0.086;2022-10-31T04:32:16;7;4;
57884;PMS5003;43703;51.060;-0.086;2022-10-31T04:34:42;4;4;
57884;PMS5003;43703;51.060;-0.086;2022-10-31T04:37:08;2;2;
57884;PMS5003;43703;51.060;-0.086;2022-10-31T04:39:33;3;3;
57884;PMS5003;43703;51.060;-0.086;2022-10-31T04:41:59;4;3;
57884;PMS5003;43703;51.060;-0.086;2022-10-31T04:44:25;7;4;
57884;PMS5003;43703;51.060;-0.086;2022-10-31T04:46:51;4;4;
57884;PMS5003;43703;51.060;-0.086;2022-10-31T04:49:17;5;4;
57884;PMS5003;43703;51.060;-0.086;2022-10-31T04:51:43;4;4;
57884;PMS5003;43703;51.060;-0.086;2022-10-31T04:54:08;3;3;
57884;PMS5003;43703;51.060;-0.086;2022-10-31T04:56:34;2;2;
57884;PMS5003;43703;51.060;-0.086;2022-10-31T04:59:00;4;3;
57884;PMS5003;43703;51.060;-0.086;2022-10-31T05:01:26;5;3;
57884;PMS5003;43703;51.060;-0.086;2022-10-31T05:03:52;4;4;
57884;PMS5003;43703;51.060;-0.086;2022-10-31T05:06:18;5;3;
57884;PMS5003;43703;51.060;-0.086;2022-10-31T05:08:43;6;4;
57884;PMS5003;43703;51.060;-0.086;2022-10-31T05:11:09;3;3;
57884;PMS5003;43703;51.060;-0.086;2022-10-31T05:13:35;2;2;
57884;PMS5003;43703;51.060;-0.086;2022-10-31T05:16:01;6;4;
57884;PMS5003;43703;51.060;-0.086;2022-10-31T05:18:26;5;4;
57884;PMS5003;43703;51.060;-0.086;2022-10-31T05:20:51;5;5;
57884;PMS5003;43703;51.060;-0.086;2022-10-31T05:23:17;3;2;
57884;PMS5003;43703;51.060;-0.086;2022-10-31T05:25:43;5;5;
57884;PMS5003;43703;51.060;-0.086;2022-10-31T05:28:09;3;3;
57884;PMS5003;43703;51.060;-0.086;2022-10-31T05:30:36;7;3;
57884;PMS5003;43703;51.060;-0.086;2022-10-31T05:33:01;5;5;
57884;PMS5003;43703;51.060;-0.086;2022-10-31T05:35:28;2;2;
57884;PMS5003;43703;51.060;-0.086;2022-10-31T05:37:53;5;5;
57884;PMS5003;43703;51.060;-0.086;2022-10-31T05:40:19;5;3;
57884;PMS5003;43703;51.060;-0.086;2022-10-31T05:42:44;2;2;
57884;PMS5003;43703;51.060;-0.086;2022-10-31T05:45:10;4;3;
57884;PMS5003;43703;51.060;-0.086;2022-10-31T05:47:36;4;4;
57884;PMS5003;43703;51.060;-0.086;2022-10-31T05:50:02;3;3;
57884;PMS5003;43703;51.060;-0.086;2022-10-31T05:52:27;2;2;
57884;PMS5003;43703;51.060;-0.086;2022-10-31T05:54:53;5;3;
57884;PMS5003;43703;51.060;-0.086;2022-10-31T05:57:19;5;5;
57884;PMS5003;43703;51.060;-0.086;2022-10-31T05:59:44;6;6;
57884;PMS5003;43703;51.060;-0.086;2022-10-31T06:02:10;5;5;
57884;PMS5003;43703;51.060;-0.086;2022-10-31T06:04:35;7;6;
57884;PMS5003;43703;51.060;-0.086;2022-10-31T06:07:01;6;5;
57884;PMS5003;43703;51.060;-0.086;2022-10-31T06:09:27;5;5;
57884;PMS5003;43703;51.060;-0.086;2022-10-31T06:11:53;8;8;
57884;PMS5003;43703;51.060;-0.086;2022-10-31T06:14:18;5;5;
57884;PMS5003;43703;51.060;-0.086;2022-10-31T06:16:43;5;5;
57884;PMS5003;43703;51.060;-0.086;2022-10-31T06:19:09;5;5;
57884;PMS5003;43703;51.060;-0.086;2022-10-31T06:21:35;6;6;
57884;PMS5003;43703;51.060;-0.086;2022-10-31T06:24:01;10;7;
57884;PMS5003;43703;51.060;-0.086;2022-10-31T06:26:26;8;5;
57884;PMS5003;43703;51.060;-0.086;2022-10-31T06:28:51;5;5;
57884;PMS5003;43703;51.060;-0.086;2022-10-31T06:31:16;5;5;
57884;PMS5003;43703;51.060;-0.086;2022-10-31T06:33:41;10;5;
57884;PMS5003;43703;51.060;-0.086;2022-10-31T06:36:07;6;5;
57884;PMS5003;43703;51.060;-0.086;2022-10-31T06:38:32;5;4;
57884;PMS5003;43703;51.060;-0.086;2022-10-31T06:41:01;3;3;
57884;PMS5003;43703;51.060;-0.086;2022-10-31T06:43:24;7;6;
57884;PMS5003;43703;51.060;-0.086;2022-10-31T06:45:49;6;4;
57884;PMS5003;43703;51.060;-0.086;2022-10-31T06:48:15;4;3;
57884;PMS5003;43703;51.060;-0.086;2022-10-31T06:50:41;6;6;
57884;PMS5003;43703;51.060;-0.086;2022-10-31T06:53:07;8;6;
57884;PMS5003;43703;51.060;-0.086;2022-10-31T06:55:32;3;2;
57884;PMS5003;43703;51.060;-0.086;2022-10-31T06:57:59;7;5;
57884;PMS5003;43703;51.060;-0.086;2022-10-31T07:00:24;10;8;
57884;PMS5003;43703;51.060;-0.086;2022-10-31T07:02:53;7;7;
57884;PMS5003;43703;51.060;-0.086;2022-10-31T07:05:15;9;5;
57884;PMS5003;43703;51.060;-0.086;2022-10-31T07:07:41;5;5;
57884;PMS5003;43703;51.060;-0.086;2022-10-31T07:10:07;5;5;
57884;PMS5003;43703;51.060;-0.086;2022-10-31T07:12:33;9;8;
57884;PMS5003;43703;51.060;-0.086;2022-10-31T07:14:59;5;5;
57884;PMS5003;43703;51.060;-0.086;2022-10-31T07:17:25;5;5;
57884;PMS5003;43703;51.060;-0.086;2022-10-31T07:19:51;8;6;
57884;PMS5003;43703;51.060;-0.086;2022-10-31T07:22:16;7;6;
57884;PMS5003;43703;51.060;-0.086;2022-10-31T07:24:42;7;5;
57884;PMS5003;43703;51.060;-0.086;2022-10-31T07:27:08;6;5;
57884;PMS5003;43703;51.060;-0.086;2022-10-31T07:29:34;5;5;
57884;PMS5003;43703;51.060;-0.086;2022-10-31T07:31:59;11;6;
57884;PMS5003;43703;51.060;-0.086;2022-10-31T07:34:25;8;5;
57884;PMS5003;43703;51.060;-0.086;2022-10-31T07:36:51;8;6;
57884;PMS5003;43703;51.060;-0.086;2022-10-31T07:39:16;4;4;
57884;PMS5003;43703;51.060;-0.086;2022-10-31T07:41:42;6;6;
57884;PMS5003;43703;51.060;-0.086;2022-10-31T07:44:08;6;5;
57884;PMS5003;43703;51.060;-0.086;2022-10-31T07:46:34;5;5;
57884;PMS5003;43703;51.060;-0.086;2022-10-31T07:49:00;5;5;
57884;PMS5003;43703;51.060;-0.086;2022-10-31T07:51:25;7;6;
57884;PMS5003;43703;51.060;-0.086;2022-10-31T07:53:51;7;5;
57884;PMS5003;43703;51.060;-0.086;2022-10-31T07:56:17;7;4;
57884;PMS5003;43703;51.060;-0.086;2022-10-31T07:58:43;7;4;
57884;PMS5003;43703;51.060;-0.086;2022-10-31T08:01:08;4;4;
57884;PMS5003;43703;51.060;-0.086;2022-10-31T08:03:34;5;4;
57884;PMS5003;43703;51.060;-0.086;2022-10-31T08:06:00;6;6;
57884;PMS5003;43703;51.060;-0.086;2022-10-31T08:08:26;4;4;
57884;PMS5003;43703;51.060;-0.086;2022-10-31T08:10:52;4;4;
57884;PMS5003;43703;51.060;-0.086;2022-10-31T08:13:17;8;5;
57884;PMS5003;43703;51.060;-0.086;2022-10-31T08:15:43;5;5;
57884;PMS5003;43703;51.060;-0.086;2022-10-31T08:18:11;4;4;
57884;PMS5003;43703;51.060;-0.086;2022-10-31T08:20:35;5;5;
57884;PMS5003;43703;51.060;-0.086;2022-10-31T08:23:01;6;5;
57884;PMS5003;43703;51.060;-0.086;2022-10-31T08:25:26;9;7;
57884;PMS5003;43703;51.060;-0.086;2022-10-31T08:27:52;5;5;
57884;PMS5003;43703;51.060;-0.086;2022-10-31T08:30:18;6;6;
57884;PMS5003;43703;51.060;-0.086;2022-10-31T08:32:43;9;7;
57884;PMS5003;43703;51.060;-0.086;2022-10-31T08:35:09;8;7;
57884;PMS5003;43703;51.060;-0.086;2022-10-31T08:37:34;12;11;
57884;PMS5003;43703;51.060;-0.086;2022-10-31T08:40:00;8;6;
57884;PMS5003;43703;51.060;-0.086;2022-10-31T08:42:25;9;9;
57884;PMS5003;43703;51.060;-0.086;2022-10-31T08:44:51;11;8;
57884;PMS5003;43703;51.060;-0.086;2022-10-31T08:47:17;10;10;
57884;PMS5003;43703;51.060;-0.086;2022-10-31T08:49:43;8;8;
57884;PMS5003;43703;51.060;-0.086;2022-10-31T08:52:08;7;7;
57884;PMS5003;43703;51.060;-0.086;2022-10-31T08:54:34;9;9;
57884;PMS5003;43703;51.060;-0.086;2022-10-31T08:57:00;9;9;
57884;PMS5003;43703;51.060;-0.086;2022-10-31T08:59:26;11;9;
57884;PMS5003;43703;51.060;-0.086;2022-10-31T09:01:52;7;7;
57884;PMS5003;43703;51.060;-0.086;2022-10-31T09:04:17;8;8;
57884;PMS5003;43703;51.060;-0.086;2022-10-31T09:06:43;6;6;
57884;PMS5003;43703;51.060;-0.086;2022-10-31T09:09:09;6;4;
57884;PMS5003;43703;51.060;-0.086;2022-10-31T09:11:35;5;5;
57884;PMS5003;43703;51.060;-0.086;2022-10-31T09:14:00;5;5;
57884;PMS5003;43703;51.060;-0.086;2022-10-31T09:16:26;6;6;
57884;PMS5003;43703;51.060;-0.086;2022-10-31T09:18:52;7;4;
57884;PMS5003;43703;51.060;-0.086;2022-10-31T09:21:18;5;5;
57884;PMS5003;43703;51.060;-0.086;2022-10-31T09:23:43;3;2;
57884;PMS5003;43703;51.060;-0.086;2022-10-31T09:26:09;5;4;
57884;PMS5003;43703;51.060;-0.086;2022-10-31T09:28:35;6;6;
57884;PMS5003;43703;51.060;-0.086;2022-10-31T09:31:01;4;3;
57884;PMS5003;43703;51.060;-0.086;2022-10-31T09:33:27;4;4;
57884;PMS5003;43703;51.060;-0.086;2022-10-31T09:35:52;4;4;
57884;PMS5003;43703;51.060;-0.086;2022-10-31T09:38:19;5;5;
57884;PMS5003;43703;51.060;-0.086;2022-10-31T09:40:45;5;5;
57884;PMS5003;43703;51.060;-0.086;2022-10-31T09:43:13;3;3;
57884;PMS5003;43703;51.060;-0.086;2022-10-31T09:45:37;3;3;
57884;PMS5003;43703;51.060;-0.086;2022-10-31T09:48:05;6;4;
57884;PMS5003;43703;51.060;-0.086;2022-10-31T09:50:28;4;4;
57884;PMS5003;43703;51.060;-0.086;2022-10-31T09:52:56;8;6;
57884;PMS5003;43703;51.060;-0.086;2022-10-31T09:55:20;5;5;
57884;PMS5003;43703;51.060;-0.086;2022-10-31T09:57:44;7;6;
57884;PMS5003;43703;51.060;-0.086;2022-10-31T10:00:13;6;4;
57884;PMS5003;43703;51.060;-0.086;2022-10-31T10:02:36;4;4;
57884;PMS5003;43703;51.060;-0.086;2022-10-31T10:05:01;7;5;
57884;PMS5003;43703;51.060;-0.086;2022-10-31T10:07:30;4;4;
57884;PMS5003;43703;51.060;-0.086;2022-10-31T10:09:52;3;3;
57884;PMS5003;43703;51.060;-0.086;2022-10-31T10:12:33;4;4;
57884;PMS5003;43703;51.060;-0.086;2022-10-31T10:14:47;4;4;
57884;PMS5003;43703;51.060;-0.086;2022-10-31T10:17:13;5;5;
57884;PMS5003;43703;51.060;-0.086;2022-10-31T10:19:44;5;5;
57884;PMS5003;43703;51.060;-0.086;2022-10-31T10:22:03;10;6;
57884;PMS5003;43703;51.060;-0.086;2022-10-31T10:24:30;5;5;
57884;PMS5003;43703;51.060;-0.086;2022-10-31T10:26:56;8;6;
57884;PMS5003;43703;51.060;-0.086;2022-10-31T10:29:27;7;7;
57884;PMS5003;43703;51.060;-0.086;2022-10-31T10:31:45;5;4;
57884;PMS5003;43703;51.060;-0.086;2022-10-31T10:34:11;3;3;
57884;PMS5003;43703;51.060;-0.086;2022-10-31T10:36:37;6;6;
57884;PMS5003;43703;51.060;-0.086;2022-10-31T10:39:02;3;3;
57884;PMS5003;43703;51.060;-0.086;2022-10-31T10:41:29;4;4;
57884;PMS5003;43703;51.060;-0.086;2022-10-31T10:43:53;4;4;
57884;PMS5003;43703;51.060;-0.086;2022-10-31T10:46:21;4;4;
57884;PMS5003;43703;51.060;-0.086;2022-10-31T10:48:46;3;3;
57884;PMS5003;43703;51.060;-0.086;2022-10-31T10:51:17;4;3;
57884;PMS5003;43703;51.060;-0.086;2022-10-31T10:53:41;4;4;
57884;PMS5003;43703;51.060;-0.086;2022-10-31T10:56:06;5;5;
57884;PMS5003;43703;51.060;-0.086;2022-10-31T10:58:28;3;3;
57884;PMS5003;43703;51.060;-0.086;2022-10-31T11:00:54;3;3;
57884;PMS5003;43703;51.060;-0.086;2022-10-31T11:03:20;3;3;
57884;PMS5003;43703;51.060;-0.086;2022-10-31T11:05:47;3;3;
57884;PMS5003;43703;51.060;-0.086;2022-10-31T11:08:22;1;1;
57884;PMS5003;43703;51.060;-0.086;2022-10-31T11:10:37;3;3;
57884;PMS5003;43703;51.060;-0.086;2022-10-31T11:13:05;3;3;
57884;PMS5003;43703;51.060;-0.086;2022-10-31T11:15:30;3;3;
57884;PMS5003;43703;51.060;-0.086;2022-10-31T11:17:55;3;2;
57884;PMS5003;43703;51.060;-0.086;2022-10-31T11:20:24;1;1;
57884;PMS5003;43703;51.060;-0.086;2022-10-31T11:22:47;2;2;
57884;PMS5003;43703;51.060;-0.086;2022-10-31T11:27:38;3;1;
57884;PMS5003;43703;51.060;-0.086;2022-10-31T11:30:05;2;2;
57884;PMS5003;43703;51.060;-0.086;2022-10-31T11:32:29;2;2;
57884;PMS5003;43703;51.060;-0.086;2022-10-31T11:34:56;2;2;
57884;PMS5003;43703;51.060;-0.086;2022-10-31T11:37:22;4;4;
57884;PMS5003;43703;51.060;-0.086;2022-10-31T11:39:48;1;1;
57884;PMS5003;43703;51.060;-0.086;2022-10-31T11:42:13;2;2;
57884;PMS5003;43703;51.060;-0.086;2022-10-31T11:44:41;6;4;
57884;PMS5003;43703;51.060;-0.086;2022-10-31T11:47:05;4;2;
57884;PMS5003;43703;51.060;-0.086;2022-10-31T11:49:31;3;0;
57884;PMS5003;43703;51.060;-0.086;2022-10-31T11:51:56;2;2;
57884;PMS5003;43703;51.060;-0.086;2022-10-31T11:54:23;2;2;
57884;PMS5003;43703;51.060;-0.086;2022-10-31T11:56:48;1;1;
57884;PMS5003;43703;51.060;-0.086;2022-10-31T11:59:16;2;2;
57884;PMS5003;43703;51.060;-0.086;2022-10-31T12:01:39;3;2;
57884;PMS5003;43703;51.060;-0.086;2022-10-31T12:04:06;3;3;
57884;PMS5003;43703;51.060;-0.086;2022-10-31T12:06:31;6;3;
57884;PMS5003;43703;51.060;-0.086;2022-10-31T12:08:56;3;1;
57884;PMS5003;43703;51.060;-0.086;2022-10-31T12:11:27;4;2;
57884;PMS5003;43703;51.060;-0.086;2022-10-31T12:13:51;2;2;
57884;PMS5003;43703;51.060;-0.086;2022-10-31T12:16:16;2;2;
57884;PMS5003;43703;51.060;-0.086;2022-10-31T12:18:46;3;2;
57884;PMS5003;43703;51.060;-0.086;2022-10-31T12:21:10;3;3;
57884;PMS5003;43703;51.060;-0.086;2022-10-31T12:23:33;3;3;
57884;PMS5003;43703;51.060;-0.086;2022-10-31T12:25:59;6;3;
57884;PMS5003;43703;51.060;-0.086;2022-10-31T12:30:52;2;2;
57884;PMS5003;43703;51.060;-0.086;2022-10-31T12:33:19;4;3;
57884;PMS5003;43703;51.060;-0.086;2022-10-31T12:35:40;3;1;
57884;PMS5003;43703;51.060;-0.086;2022-10-31T12:40:35;3;3;
57884;PMS5003;43703;51.060;-0.086;2022-10-31T12:43:01;4;2;
57884;PMS5003;43703;51.060;-0.086;2022-10-31T12:45:29;5;4;
57884;PMS5003;43703;51.060;-0.086;2022-10-31T12:47:54;3;3;
57884;PMS5003;43703;51.060;-0.086;2022-10-31T12:50:19;2;2;
57884;PMS5003;43703;51.060;-0.086;2022-10-31T12:52:44;3;1;
57884;PMS5003;43703;51.060;-0.086;2022-10-31T12:55:10;5;3;
57884;PMS5003;43703;51.060;-0.086;2022-10-31T12:57:33;3;3;
57884;PMS5003;43703;51.060;-0.086;2022-10-31T13:00:00;4;4;
57884;PMS5003;43703;51.060;-0.086;2022-10-31T13:02:25;3;3;
57884;PMS5003;43703;51.060;-0.086;2022-10-31T13:04:50;2;1;
57884;PMS5003;43703;51.060;-0.086;2022-10-31T13:07:17;3;3;
57884;PMS5003;43703;51.060;-0.086;2022-10-31T13:09:43;2;2;
57884;PMS5003;43703;51.060;-0.086;2022-10-31T13:12:08;3;3;
57884;PMS5003;43703;51.060;-0.086;2022-10-31T13:14:34;4;3;
57884;PMS5003;43703;51.060;-0.086;2022-10-31T13:16:59;3;3;
57884;PMS5003;43703;51.060;-0.086;2022-10-31T13:19:25;4;4;
57884;PMS5003;43703;51.060;-0.086;2022-10-31T13:21:53;3;2;
57884;PMS5003;43703;51.060;-0.086;2022-10-31T13:24:18;2;2;
57884;PMS5003;43703;51.060;-0.086;2022-10-31T13:26:43;3;3;
57884;PMS5003;43703;51.060;-0.086;2022-10-31T13:29:11;1;1;
57884;PMS5003;43703;51.060;-0.086;2022-10-31T13:31:34;3;3;
57884;PMS5003;43703;51.060;-0.086;2022-10-31T13:34:00;2;2;
57884;PMS5003;43703;51.060;-0.086;2022-10-31T13:36:28;2;2;
57884;PMS5003;43703;51.060;-0.086;2022-10-31T13:38:51;4;3;
57884;PMS5003;43703;51.060;-0.086;2022-10-31T13:41:20;3;3;
57884;PMS5003;43703;51.060;-0.086;2022-10-31T13:43:47;2;2;
57884;PMS5003;43703;51.060;-0.086;2022-10-31T13:48:36;3;3;
57884;PMS5003;43703;51.060;-0.086;2022-10-31T13:51:01;3;3;
57884;PMS5003;43703;51.060;-0.086;2022-10-31T13:58:21;4;2;
57884;PMS5003;43703;51.060;-0.086;2022-10-31T14:00:43;3;3;
57884;PMS5003;43703;51.060;-0.086;2022-10-31T14:05:35;3;3;
57884;PMS5003;43703;51.060;-0.086;2022-10-31T14:08:01;3;3;
57884;PMS5003;43703;51.060;-0.086;2022-10-31T14:10:27;2;2;
57884;PMS5003;43703;51.060;-0.086;2022-10-31T14:12:52;1;1;
57884;PMS5003;43703;51.060;-0.086;2022-10-31T14:15:20;4;4;
57884;PMS5003;43703;51.060;-0.086;2022-10-31T14:17:45;3;3;
57884;PMS5003;43703;51.060;-0.086;2022-10-31T14:22:36;6;2;
57884;PMS5003;43703;51.060;-0.086;2022-10-31T14:25:01;2;2;
57884;PMS5003;43703;51.060;-0.086;2022-10-31T14:27:33;2;2;
57884;PMS5003;43703;51.060;-0.086;2022-10-31T14:29:53;2;2;
57884;PMS5003;43703;51.060;-0.086;2022-10-31T14:32:20;2;2;
57884;PMS5003;43703;51.060;-0.086;2022-10-31T14:37:15;4;4;
57884;PMS5003;43703;51.060;-0.086;2022-10-31T14:39:39;3;3;
57884;PMS5003;43703;51.060;-0.086;2022-10-31T14:42:06;4;4;
57884;PMS5003;43703;51.060;-0.086;2022-10-31T14:46:55;7;6;
57884;PMS5003;43703;51.060;-0.086;2022-10-31T14:49:24;6;5;
57884;PMS5003;43703;51.060;-0.086;2022-10-31T14:51:46;6;6;
57884;PMS5003;43703;51.060;-0.086;2022-10-31T14:54:12;5;5;
57884;PMS5003;43703;51.060;-0.086;2022-10-31T14:56:37;9;8;
57884;PMS5003;43703;51.060;-0.086;2022-10-31T14:59:04;5;5;
57884;PMS5003;43703;51.060;-0.086;2022-10-31T15:01:29;6;6;
57884;PMS5003;43703;51.060;-0.086;2022-10-31T15:03:55;5;4;
57884;PMS5003;43703;51.060;-0.086;2022-10-31T15:06:20;9;8;
57884;PMS5003;43703;51.060;-0.086;2022-10-31T15:08:45;6;6;
57884;PMS5003;43703;51.060;-0.086;2022-10-31T15:11:11;6;6;
57884;PMS5003;43703;51.060;-0.086;2022-10-31T15:13:41;10;6;
57884;PMS5003;43703;51.060;-0.086;2022-10-31T15:16:02;8;6;
57884;PMS5003;43703;51.060;-0.086;2022-10-31T15:18:28;6;5;
57884;PMS5003;43703;51.060;-0.086;2022-10-31T15:20:54;6;6;
57884;PMS5003;43703;51.060;-0.086;2022-10-31T15:23:21;9;9;
57884;PMS5003;43703;51.060;-0.086;2022-10-31T15:25:45;14;14;
57884;PMS5003;43703;51.060;-0.086;2022-10-31T15:28:13;13;11;
57884;PMS5003;43703;51.060;-0.086;2022-10-31T15:30:37;17;13;
57884;PMS5003;43703;51.060;-0.086;2022-10-31T15:33:02;14;14;
57884;PMS5003;43703;51.060;-0.086;2022-10-31T15:35:29;15;15;
57884;PMS5003;43703;51.060;-0.086;2022-10-31T15:37:53;19;18;
57884;PMS5003;43703;51.060;-0.086;2022-10-31T15:40:20;22;21;
57884;PMS5003;43703;51.060;-0.086;2022-10-31T15:42:45;20;20;
57884;PMS5003;43703;51.060;-0.086;2022-10-31T15:47:36;11;11;
57884;PMS5003;43703;51.060;-0.086;2022-10-31T15:50:02;14;11;
57884;PMS5003;43703;51.060;-0.086;2022-10-31T15:52:28;10;9;
57884;PMS5003;43703;51.060;-0.086;2022-10-31T15:54:53;12;10;
57884;PMS5003;43703;51.060;-0.086;2022-10-31T15:57:19;10;8;
57884;PMS5003;43703;51.060;-0.086;2022-10-31T15:59:45;19;18;
57884;PMS5003;43703;51.060;-0.086;2022-10-31T16:02:11;19;19;
57884;PMS5003;43703;51.060;-0.086;2022-10-31T16:04:36;26;25;
57884;PMS5003;43703;51.060;-0.086;2022-10-31T16:07:03;22;17;
57884;PMS5003;43703;51.060;-0.086;2022-10-31T16:09:27;22;21;
57884;PMS5003;43703;51.060;-0.086;2022-10-31T16:11:52;14;14;
57884;PMS5003;43703;51.060;-0.086;2022-10-31T16:14:18;16;16;
57884;PMS5003;43703;51.060;-0.086;2022-10-31T16:16:44;12;12;
57884;PMS5003;43703;51.060;-0.086;2022-10-31T16:19:14;14;14;
57884;PMS5003;43703;51.060;-0.086;2022-10-31T16:21:35;19;17;
57884;PMS5003;43703;51.060;-0.086;2022-10-31T16:24:00;15;13;
57884;PMS5003;43703;51.060;-0.086;2022-10-31T16:26:24;12;12;
57884;PMS5003;43703;51.060;-0.086;2022-10-31T16:28:50;33;32;
57884;PMS5003;43703;51.060;-0.086;2022-10-31T16:31:15;14;14;
57884;PMS5003;43703;51.060;-0.086;2022-10-31T16:33:41;14;14;
57884;PMS5003;43703;51.060;-0.086;2022-10-31T16:38:32;17;17;
57884;PMS5003;43703;51.060;-0.086;2022-10-31T16:40:57;16;15;
57884;PMS5003;43703;51.060;-0.086;2022-10-31T16:43:22;19;16;
57884;PMS5003;43703;51.060;-0.086;2022-10-31T16:45:48;16;15;
57884;PMS5003;43703;51.060;-0.086;2022-10-31T16:48:14;12;12;
57884;PMS5003;43703;51.060;-0.086;2022-10-31T16:50:39;20;15;
57884;PMS5003;43703;51.060;-0.086;2022-10-31T16:53:04;15;15;